Time;durP1;ratioP1;P1;durP2;ratioP2;P2;SDS_P1;SDS_P2;PMS_P1;PMS_P2;Temp;Humidity;BMP_temperature;BMP_pressure;BME280_temperature;BME280_humidity;BME280_pressure;Samples;Min_cycle;Max_cycle;Signal;HPM_P1;HPM_P2
2022/04/04 08:01:57;;;;;;;7.30;6.10;;;;;;;;;;6212946;23;20040;-92
2022/04/04 08:04:23;;;;;;;7.40;6.28;;;;;;;;;;6217447;23;20020;-86
2022/04/04 08:06:48;;;;;;;9.40;6.43;;;;;;;;;;6217493;23;20001;-88
2022/04/04 08:09:14;;;;;;;10.55;6.32;;;;;;;;;;6217383;23;20007;-86
2022/04/04 08:11:39;;;;;;;8.10;6.30;;;;;;;;;;6217163;23;20008;-86
2022/04/04 08:47:42;;;;;;;8.05;5.90;;;;;;;;;;6182561;23;20331;-90
2022/04/04 08:50:10;;;;;;;7.28;5.13;;;;;;;;;;6185302;23;20009;-89
2022/04/04 08:52:37;;;;;;;7.28;5.10;;;;;;;;;;6189761;23;20008;-86
2022/04/04 08:55:02;;;;;;;6.05;5.45;;;;;;;;;;6190917;23;20052;-85
2022/04/04 08:57:28;;;;;;;5.68;5.03;;;;;;;;;;6190077;23;20367;-87
2022/04/04 08:59:53;;;;;;;6.57;5.45;;;;;;;;;;6196663;23;19997;-86
2022/04/04 09:02:19;;;;;;;5.75;4.68;;;;;;;;;;6194472;23;20009;-83
2022/04/04 09:04:50;;;;;;;7.13;5.38;;;;;;;;;;6195345;23;20096;-85
2022/04/04 09:07:15;;;;;;;6.55;5.40;;;;;;;;;;6193667;23;20024;-89
2022/04/04 09:09:46;;;;;;;4.95;4.53;;;;;;;;;;6193270;23;20009;-87
2022/04/04 09:12:13;;;;;;;5.82;4.68;;;;;;;;;;6191614;23;20012;-85
2022/04/04 09:14:51;;;;;;;5.70;4.60;;;;;;;;;;6195298;23;20005;-89
2022/04/04 09:17:20;;;;;;;6.32;5.05;;;;;;;;;;6196756;23;20063;-89
2022/04/04 09:19:46;;;;;;;5.50;4.85;;;;;;;;;;6196969;23;20144;-86
2022/04/04 09:22:16;;;;;;;5.57;4.32;;;;;;;;;;6203793;23;20005;-84
2022/04/04 09:24:47;;;;;;;5.15;4.65;;;;;;;;;;6212479;23;20008;-84
2022/04/04 09:27:17;;;;;;;5.88;4.60;;;;;;;;;;6207391;23;20005;-85
2022/04/04 09:29:43;;;;;;;6.80;4.75;;;;;;;;;;6201319;23;20025;-85
2022/04/04 09:32:12;;;;;;;7.07;4.80;;;;;;;;;;6199765;23;20039;-86
2022/04/04 09:35:01;;;;;;;5.93;4.93;;;;;;;;;;6191849;23;20333;-89
2022/04/04 09:37:30;;;;;;;5.78;4.30;;;;;;;;;;6188400;23;20016;-87
2022/04/04 09:40:02;;;;;;;6.35;4.85;;;;;;;;;;6188266;23;20004;-86
2022/04/04 09:42:28;;;;;;;6.85;4.63;;;;;;;;;;6188273;23;20008;-87
2022/04/04 09:45:20;;;;;;;9.38;4.50;;;;;;;;;;6187595;23;20005;-88
2022/04/04 09:47:52;;;;;;;6.93;4.80;;;;;;;;;;6182517;23;20008;-88
2022/04/04 09:50:32;;;;;;;6.40;5.47;;;;;;;;;;6186252;23;20124;-90
2022/04/04 09:53:02;;;;;;;7.07;5.63;;;;;;;;;;6194348;23;20001;-92
2022/04/04 09:55:30;;;;;;;7.93;5.40;;;;;;;;;;6187253;23;20012;-90
2022/04/04 09:57:58;;;;;;;9.07;6.22;;;;;;;;;;6187294;23;20001;-90
2022/04/04 10:00:24;;;;;;;7.65;5.40;;;;;;;;;;6189080;23;20013;-92
2022/04/04 10:02:53;;;;;;;7.00;4.97;;;;;;;;;;6186884;23;20012;-90
2022/04/04 10:05:20;;;;;;;7.50;5.13;;;;;;;;;;6187077;23;20080;-89
2022/04/04 10:07:46;;;;;;;5.90;4.85;;;;;;;;;;6185706;23;20001;-90
2022/04/04 10:10:11;;;;;;;6.70;5.63;;;;;;;;;;6185127;23;20048;-89
2022/04/04 10:12:38;;;;;;;7.22;5.03;;;;;;;;;;6186709;23;20001;-89
2022/04/04 10:15:05;;;;;;;5.38;4.20;;;;;;;;;;6185135;23;20085;-89
2022/04/04 10:17:31;;;;;;;8.35;5.13;;;;;;;;;;6185128;23;20098;-89
2022/04/04 10:19:57;;;;;;;5.68;4.38;;;;;;;;;;6186483;23;20074;-92
2022/04/04 10:22:23;;;;;;;5.10;4.18;;;;;;;;;;6186330;23;20009;-90
2022/04/04 10:24:50;;;;;;;5.72;5.13;;;;;;;;;;6186450;23;20040;-89
2022/04/04 10:27:20;;;;;;;5.05;4.55;;;;;;;;;;6186507;23;19997;-91
2022/04/04 10:29:47;;;;;;;6.03;5.05;;;;;;;;;;6186626;23;20059;-89
2022/04/04 10:32:27;;;;;;;8.00;5.07;;;;;;;;;;6186331;23;20080;-89
2022/04/04 10:34:53;;;;;;;6.20;4.75;;;;;;;;;;6186282;23;20376;-89
2022/04/04 10:37:21;;;;;;;6.40;5.28;;;;;;;;;;6184510;23;20009;-88
2022/04/04 10:39:48;;;;;;;4.72;4.22;;;;;;;;;;6186446;23;20025;-89
2022/04/04 10:42:25;;;;;;;4.82;4.32;;;;;;;;;;6184676;23;19997;-88
2022/04/04 10:45:05;;;;;;;6.15;4.85;;;;;;;;;;6186072;23;20008;-89
2022/04/04 10:47:31;;;;;;;9.65;4.93;;;;;;;;;;6186316;23;20072;-88
2022/04/04 10:50:16;;;;;;;5.15;4.65;;;;;;;;;;6184511;23;20037;-88
2022/04/04 10:52:43;;;;;;;6.22;4.78;;;;;;;;;;6186751;23;20009;-90
2022/04/04 10:55:27;;;;;;;4.47;4.07;;;;;;;;;;6184698;23;20005;-89
2022/04/04 10:58:00;;;;;;;7.13;4.40;;;;;;;;;;6188293;23;20001;-91
2022/04/04 11:00:34;;;;;;;4.60;4.20;;;;;;;;;;6188347;23;20012;-96
2022/04/04 11:03:01;;;;;;;4.68;4.03;;;;;;;;;;6187770;23;20332;-93
2022/04/04 11:08:15;;;;;;;6.57;4.10;;;;;;;;;;6190338;23;20012;-94
2022/04/04 11:10:42;;;;;;;3.53;3.22;;;;;;;;;;6188267;23;20517;-91
2022/04/04 11:13:08;;;;;;;6.30;3.60;;;;;;;;;;6189183;23;20328;-95
2022/04/04 11:15:56;;;;;;;4.80;3.80;;;;;;;;;;6186968;23;20011;-92
2022/04/04 11:18:24;;;;;;;4.10;3.70;;;;;;;;;;6187246;23;20016;-93
2022/04/04 11:20:59;;;;;;;4.65;3.50;;;;;;;;;;6187046;23;20001;-94
2022/04/04 11:23:34;;;;;;;5.28;3.42;;;;;;;;;;6187375;23;20088;-95
2022/04/04 11:26:01;;;;;;;5.07;3.88;;;;;;;;;;6188586;23;20310;-91
2022/04/04 11:28:31;;;;;;;5.00;4.18;;;;;;;;;;6188975;23;20012;-93
2022/04/04 11:31:03;;;;;;;;;;;;;;;;;;6187997;23;20413;-93
2022/04/04 11:33:43;;;;;;;6.40;4.55;;;;;;;;;;6187396;23;20320;-93
2022/04/04 11:36:09;;;;;;;4.53;3.83;;;;;;;;;;6186569;23;20009;-89
2022/04/04 11:38:39;;;;;;;5.85;4.20;;;;;;;;;;6188197;23;20416;-94
2022/04/04 11:41:11;;;;;;;5.25;4.82;;;;;;;;;;6187068;23;20417;-90
2022/04/04 11:43:40;;;;;;;5.25;4.35;;;;;;;;;;6186380;23;20417;-89
2022/04/04 11:46:14;;;;;;;5.05;4.10;;;;;;;;;;6186817;23;20071;-89
2022/04/04 11:48:49;;;;;;;5.43;4.47;;;;;;;;;;6186025;23;20013;-91
2022/04/04 16:31:05;;;;;;;7.13;6.18;;;;;;;;;;6212249;23;19943;-90
2022/04/04 16:33:30;;;;;;;9.02;7.57;;;;;;;;;;6191153;23;20051;-90
2022/04/04 16:35:56;;;;;;;9.00;7.10;;;;;;;;;;6217276;23;20009;-87
2022/04/04 16:38:22;;;;;;;10.75;8.20;;;;;;;;;;6217462;23;20036;-87
2022/04/04 16:40:47;;;;;;;9.82;7.75;;;;;;;;;;6217471;23;19993;-89
2022/04/04 16:43:13;;;;;;;8.45;6.88;;;;;;;;;;6217050;23;20009;-88
2022/04/04 16:45:39;;;;;;;10.07;8.38;;;;;;;;;;6190629;23;20005;-88
2022/04/04 16:48:06;;;;;;;11.98;7.93;;;;;;;;;;6190660;23;20004;-89
2022/04/04 16:50:33;;;;;;;7.78;6.38;;;;;;;;;;6190810;23;20031;-89
2022/04/04 16:52:59;;;;;;;10.07;6.60;;;;;;;;;;6190069;23;20067;-89
2022/04/04 16:55:24;;;;;;;6.40;5.78;;;;;;;;;;6190310;23;20020;-90
2022/04/04 16:57:50;;;;;;;7.85;6.95;;;;;;;;;;6190195;23;20074;-90
2022/04/04 17:00:17;;;;;;;8.75;6.80;;;;;;;;;;6217137;23;20470;-90
2022/04/04 17:02:42;;;;;;;7.78;6.93;;;;;;;;;;6217046;23;20001;-86
2022/04/04 17:05:08;;;;;;;7.40;6.60;;;;;;;;;;6190287;23;20359;-89
2022/04/04 17:07:34;;;;;;;7.55;6.75;;;;;;;;;;6190484;23;20420;-88
2022/04/04 17:10:04;;;;;;;8.82;7.07;;;;;;;;;;6216790;23;19997;-89
2022/04/04 17:12:30;;;;;;;;;;;;;;;;;;6190981;23;20011;-85
2022/04/04 17:14:56;;;;;;;10.82;7.20;;;;;;;;;;6216764;23;19990;-91
2022/04/04 17:17:21;;;;;;;10.43;8.32;;;;;;;;;;6217355;23;20313;-88
2022/04/04 17:19:47;;;;;;;10.82;8.40;;;;;;;;;;6190791;23;20001;-89
2022/04/04 17:22:13;;;;;;;13.32;8.98;;;;;;;;;;6190689;23;20463;-93
2022/04/04 17:24:38;;;;;;;8.75;7.18;;;;;;;;;;6216906;23;20378;-91
2022/04/04 17:27:04;;;;;;;12.40;8.80;;;;;;;;;;6190733;23;20112;-92
2022/04/04 17:29:29;;;;;;;11.05;9.82;;;;;;;;;;6190456;23;20007;-91
2022/04/04 17:31:55;;;;;;;9.52;6.88;;;;;;;;;;6216827;23;20032;-90
2022/04/04 17:34:20;;;;;;;10.30;7.72;;;;;;;;;;6190222;23;20049;-90
2022/04/04 17:36:46;;;;;;;9.40;7.60;;;;;;;;;;6216516;23;20034;-90
2022/04/04 17:39:18;;;;;;;10.10;7.93;;;;;;;;;;6189811;23;20466;-89
2022/04/04 17:41:44;;;;;;;9.65;7.65;;;;;;;;;;6189636;23;20539;-87
2022/04/04 17:44:09;;;;;;;9.77;8.20;;;;;;;;;;6189789;23;20071;-90
2022/04/04 17:46:35;;;;;;;9.00;7.57;;;;;;;;;;6216494;23;20004;-89
2022/04/04 17:49:00;;;;;;;8.38;7.15;;;;;;;;;;6216407;23;20005;-89
2022/04/04 17:51:26;;;;;;;10.60;7.50;;;;;;;;;;6189698;23;20004;-89
2022/04/04 17:53:52;;;;;;;11.95;8.68;;;;;;;;;;6189766;23;20041;-87
2022/04/04 17:56:17;;;;;;;12.43;9.73;;;;;;;;;;6189737;23;20423;-88
2022/04/04 17:58:46;;;;;;;11.75;8.23;;;;;;;;;;6189995;23;20081;-88
2022/04/04 18:01:17;;;;;;;9.90;7.97;;;;;;;;;;6189959;23;20019;-91
2022/04/04 18:03:42;;;;;;;11.05;8.35;;;;;;;;;;6216564;23;20005;-90
2022/04/04 18:06:08;;;;;;;9.75;8.48;;;;;;;;;;6189608;23;20439;-91
2022/04/04 18:08:37;;;;;;;11.15;9.07;;;;;;;;;;6216317;23;20005;-87
2022/04/04 18:11:05;;;;;;;10.70;8.07;;;;;;;;;;6190239;23;20004;-88
2022/04/04 18:13:31;;;;;;;9.15;8.05;;;;;;;;;;6194710;23;19997;-88
2022/04/04 18:15:56;;;;;;;10.52;8.88;;;;;;;;;;6190754;23;20050;-89
2022/04/04 18:18:22;;;;;;;9.48;8.27;;;;;;;;;;6192251;23;20108;-88
2022/04/04 18:20:47;;;;;;;10.30;8.10;;;;;;;;;;6220630;23;20009;-88
2022/04/04 18:23:14;;;;;;;10.48;7.90;;;;;;;;;;6217200;23;20066;-90
2022/04/04 18:25:39;;;;;;;12.13;8.32;;;;;;;;;;6216920;23;20004;-92
2022/04/04 18:28:05;;;;;;;11.05;7.93;;;;;;;;;;6190649;23;20499;-91
2022/04/04 18:30:32;;;;;;;10.68;8.65;;;;;;;;;;6191925;23;20438;-91
2022/04/04 18:32:59;;;;;;;10.85;8.20;;;;;;;;;;6184994;23;20343;-91
2022/04/04 18:35:25;;;;;;;12.75;8.65;;;;;;;;;;6187045;23;20013;-91
2022/04/04 18:37:51;;;;;;;13.00;9.80;;;;;;;;;;6186884;23;20008;-92
2022/04/04 18:40:17;;;;;;;14.27;11.15;;;;;;;;;;6187980;23;20416;-92
2022/04/04 18:42:42;;;;;;;10.75;8.48;;;;;;;;;;6186412;23;20008;-93
2022/04/04 18:45:08;;;;;;;12.07;9.40;;;;;;;;;;6185585;23;20425;-91
2022/04/04 18:47:34;;;;;;;11.15;8.32;;;;;;;;;;6186451;23;20020;-91
2022/04/04 18:50:00;;;;;;;12.70;9.13;;;;;;;;;;6186186;23;20005;-92
2022/04/04 18:52:27;;;;;;;8.45;7.50;;;;;;;;;;6186879;23;20005;-92
2022/04/04 18:54:53;;;;;;;11.73;8.10;;;;;;;;;;6186061;23;20005;-90
2022/04/04 18:57:19;;;;;;;9.80;7.20;;;;;;;;;;6185491;23;20047;-93
2022/04/04 18:59:45;;;;;;;11.82;7.72;;;;;;;;;;6186555;23;20009;-94
2022/04/04 19:02:10;;;;;;;11.40;8.75;;;;;;;;;;6187079;23;20016;-92
2022/04/04 19:04:37;;;;;;;13.60;9.65;;;;;;;;;;6186096;23;20009;-91
2022/04/04 19:07:03;;;;;;;9.57;8.25;;;;;;;;;;6185917;23;20007;-92
2022/04/04 19:09:32;;;;;;;12.65;9.48;;;;;;;;;;6185556;23;20005;-92
2022/04/04 19:11:58;;;;;;;10.60;9.18;;;;;;;;;;6186146;23;20344;-91
2022/04/04 19:14:24;;;;;;;10.02;8.75;;;;;;;;;;6186011;23;20005;-90
2022/04/04 19:16:50;;;;;;;11.90;8.50;;;;;;;;;;6186201;23;20443;-92
2022/04/04 19:19:15;;;;;;;10.20;8.13;;;;;;;;;;6187156;23;20416;-92
2022/04/04 19:21:41;;;;;;;12.35;10.15;;;;;;;;;;6187287;23;20005;-91
2022/04/04 19:24:07;;;;;;;14.43;10.20;;;;;;;;;;6188779;23;20051;-90
2022/04/04 19:26:32;;;;;;;13.32;10.10;;;;;;;;;;6187047;23;20009;-90
2022/04/04 19:28:58;;;;;;;10.43;8.65;;;;;;;;;;6187274;23;20009;-92
2022/04/04 19:31:24;;;;;;;11.90;8.65;;;;;;;;;;6187985;23;20025;-91
2022/04/04 19:33:51;;;;;;;12.57;8.27;;;;;;;;;;6186834;23;20005;-90
2022/04/04 19:36:18;;;;;;;11.15;8.27;;;;;;;;;;6187861;23;20005;-91
2022/04/04 19:38:44;;;;;;;9.77;7.38;;;;;;;;;;6186238;23;20088;-89
2022/04/04 19:41:10;;;;;;;10.50;8.23;;;;;;;;;;6187064;23;20025;-92
2022/04/04 19:43:35;;;;;;;10.75;8.35;;;;;;;;;;6186793;23;19997;-90
2022/04/04 19:46:02;;;;;;;10.32;8.18;;;;;;;;;;6186777;23;20020;-91
2022/04/04 19:48:27;;;;;;;10.43;8.70;;;;;;;;;;6187076;23;20028;-90
2022/04/04 19:50:53;;;;;;;13.18;10.05;;;;;;;;;;6186608;23;20324;-92
2022/04/04 19:53:19;;;;;;;13.02;8.57;;;;;;;;;;6187015;23;20013;-92
2022/04/04 19:55:45;;;;;;;10.50;8.40;;;;;;;;;;6186993;23;20013;-92
2022/04/04 19:58:11;;;;;;;11.30;8.73;;;;;;;;;;6186588;23;20005;-91
2022/04/04 20:00:37;;;;;;;11.98;9.20;;;;;;;;;;6186979;23;20031;-92
2022/04/04 20:03:02;;;;;;;12.13;9.20;;;;;;;;;;6186850;23;20020;-91
2022/04/04 20:05:28;;;;;;;10.25;8.27;;;;;;;;;;6188028;23;20009;-92
2022/04/04 20:07:55;;;;;;;11.27;8.77;;;;;;;;;;6187224;23;20009;-90
2022/04/04 20:10:20;;;;;;;11.95;9.27;;;;;;;;;;6186738;23;20009;-93
2022/04/04 20:12:46;;;;;;;12.10;8.88;;;;;;;;;;6188535;23;20088;-91
2022/04/04 20:15:13;;;;;;;10.65;8.43;;;;;;;;;;6188472;23;20328;-94
2022/04/04 20:17:39;;;;;;;10.93;7.88;;;;;;;;;;6190347;23;20029;-91
2022/04/04 20:20:07;;;;;;;11.88;9.25;;;;;;;;;;6187994;23;20055;-95
2022/04/04 20:22:32;;;;;;;12.77;10.05;;;;;;;;;;6189901;23;20139;-92
2022/04/04 20:24:58;;;;;;;12.98;9.75;;;;;;;;;;6189886;23;20309;-94
2022/04/04 20:27:23;;;;;;;12.82;9.02;;;;;;;;;;6188216;23;20092;-93
2022/04/04 20:29:49;;;;;;;10.35;7.93;;;;;;;;;;6190154;23;20064;-92
2022/04/04 20:32:15;;;;;;;13.00;10.38;;;;;;;;;;6188924;23;20009;-91
2022/04/04 20:34:42;;;;;;;12.15;10.48;;;;;;;;;;6167004;23;20085;-93
2022/04/04 20:37:07;;;;;;;12.85;9.60;;;;;;;;;;6141090;23;20021;-93
2022/04/04 20:39:33;;;;;;;9.00;8.00;;;;;;;;;;6188619;23;20006;-92
2022/04/04 20:42:00;;;;;;;8.75;7.85;;;;;;;;;;6199913;23;20037;-89
2022/04/04 20:44:26;;;;;;;11.13;9.30;;;;;;;;;;6208161;23;19998;-94
2022/04/04 20:46:52;;;;;;;11.48;8.50;;;;;;;;;;6207370;23;20036;-93
2022/04/04 20:49:20;;;;;;;12.70;9.52;;;;;;;;;;6183224;23;20057;-91
2022/04/04 20:51:46;;;;;;;10.15;8.88;;;;;;;;;;6205219;23;20009;-93
2022/04/04 20:54:12;;;;;;;10.43;8.32;;;;;;;;;;6208507;23;20061;-93
2022/04/04 20:56:37;;;;;;;11.27;8.43;;;;;;;;;;6209114;23;20004;-89
2022/04/04 20:59:03;;;;;;;10.70;8.43;;;;;;;;;;6209675;23;19994;-92
2022/04/04 21:01:28;;;;;;;11.65;8.75;;;;;;;;;;6209289;23;19990;-92
2022/04/04 21:03:54;;;;;;;10.52;8.60;;;;;;;;;;6184126;23;20041;-91
2022/04/04 21:06:20;;;;;;;10.77;8.60;;;;;;;;;;6208599;23;20033;-91
2022/04/04 21:08:45;;;;;;;12.48;9.20;;;;;;;;;;6204444;23;20016;-92
2022/04/04 21:11:11;;;;;;;11.82;8.85;;;;;;;;;;6164558;23;20044;-92
2022/04/04 21:13:36;;;;;;;11.40;8.93;;;;;;;;;;6194662;23;20531;-92
2022/04/04 21:16:02;;;;;;;13.73;9.40;;;;;;;;;;6191951;23;20010;-92
2022/04/04 21:18:27;;;;;;;12.30;9.20;;;;;;;;;;6192745;23;20451;-93
2022/04/04 21:20:54;;;;;;;10.05;8.75;;;;;;;;;;6193974;23;20053;-92
2022/04/04 21:23:19;;;;;;;10.50;8.32;;;;;;;;;;6191781;23;20006;-94
2022/04/04 21:25:45;;;;;;;12.30;8.43;;;;;;;;;;6187901;23;20495;-95
2022/04/04 21:28:10;;;;;;;10.63;8.63;;;;;;;;;;6187887;23;20011;-92
2022/04/04 21:30:37;;;;;;;10.68;8.55;;;;;;;;;;6164817;23;20025;-94
2022/04/04 21:33:03;;;;;;;11.63;9.05;;;;;;;;;;6161191;23;20033;-91
2022/04/04 21:35:28;;;;;;;11.02;8.18;;;;;;;;;;6213632;23;20009;-89
2022/04/04 21:37:54;;;;;;;10.50;8.25;;;;;;;;;;6213487;23;20039;-92
2022/04/04 21:40:46;;;;;;;12.05;9.02;;;;;;;;;;6190876;23;20001;-90
2022/04/04 21:43:12;;;;;;;10.35;8.75;;;;;;;;;;6216238;23;20013;-91
2022/04/04 21:45:39;;;;;;;9.68;7.03;;;;;;;;;;6189248;23;20013;-91
2022/04/04 21:48:05;;;;;;;10.32;7.72;;;;;;;;;;6188441;23;20009;-90
2022/04/04 21:50:30;;;;;;;11.02;8.45;;;;;;;;;;6214486;23;20096;-92
2022/04/04 21:52:56;;;;;;;11.15;9.00;;;;;;;;;;6212811;23;20004;-92
2022/04/04 21:55:21;;;;;;;11.90;9.40;;;;;;;;;;6211173;23;20333;-91
2022/04/04 21:57:47;;;;;;;12.63;9.48;;;;;;;;;;6186026;23;20032;-90
2022/04/04 22:00:24;;;;;;;9.80;8.57;;;;;;;;;;6210914;23;20328;-91
2022/04/04 22:02:50;;;;;;;10.35;7.93;;;;;;;;;;6212634;23;20059;-91
2022/04/04 22:05:15;;;;;;;12.40;9.32;;;;;;;;;;6191518;23;20004;-91
2022/04/04 22:07:43;;;;;;;13.35;9.30;;;;;;;;;;6189335;23;20012;-90
2022/04/04 22:10:08;;;;;;;12.55;9.38;;;;;;;;;;6189435;23;20005;-92
2022/04/04 22:12:34;;;;;;;13.13;9.07;;;;;;;;;;6212599;23;20344;-92
2022/04/04 22:14:59;;;;;;;14.05;9.32;;;;;;;;;;6210387;23;20008;-91
2022/04/04 22:17:25;;;;;;;13.02;9.30;;;;;;;;;;6210546;23;20001;-90
2022/04/04 22:19:50;;;;;;;11.70;8.65;;;;;;;;;;6186694;23;20044;-91
2022/04/04 22:22:15;;;;;;;12.50;8.90;;;;;;;;;;6210519;23;20013;-91
2022/04/04 22:24:41;;;;;;;9.93;8.63;;;;;;;;;;6210457;23;20083;-91
2022/04/04 22:27:22;;;;;;;12.73;9.25;;;;;;;;;;6213310;23;20013;-93
2022/04/04 22:29:48;;;;;;;13.00;9.57;;;;;;;;;;6186597;23;20009;-90
